sensor_id;sensor_type;location;lat;lon;timestamp;P1;durP1;ratioP1;P2;durP2;ratioP2
54909;SDS011;63189;51.240;9.964;2023-04-24T01:33:07;2.15;;;0.90;;
54909;SDS011;63189;51.240;9.964;2023-04-24T01:35:33;1.83;;;0.98;;
54909;SDS011;63189;51.240;9.964;2023-04-24T01:38:01;1.50;;;1.23;;
54909;SDS011;63189;51.240;9.964;2023-04-24T01:40:27;1.83;;;1.20;;
54909;SDS011;63189;51.240;9.964;2023-04-24T01:42:52;2.47;;;1.02;;
54909;SDS011;63189;51.240;9.964;2023-04-24T01:45:18;1.38;;;0.93;;
54909;SDS011;63189;51.240;9.964;2023-04-24T01:47:43;2.25;;;1.02;;
54909;SDS011;63189;51.240;9.964;2023-04-24T01:50:09;1.30;;;0.95;;
54909;SDS011;63189;51.240;9.964;2023-04-24T01:52:36;4.05;;;1.27;;
54909;SDS011;63189;51.240;9.964;2023-04-24T01:55:03;2.17;;;1.00;;
54909;SDS011;63189;51.240;9.964;2023-04-24T01:57:29;1.30;;;1.20;;
54909;SDS011;63189;51.240;9.964;2023-04-24T01:59:56;2.70;;;1.60;;
54909;SDS011;63189;51.240;9.964;2023-04-24T02:02:22;1.85;;;1.10;;
54909;SDS011;63189;51.240;9.964;2023-04-24T02:04:49;1.75;;;1.35;;
54909;SDS011;63189;51.240;9.964;2023-04-24T02:07:15;4.55;;;1.55;;
54909;SDS011;63189;51.240;9.964;2023-04-24T02:09:40;2.17;;;1.40;;
54909;SDS011;63189;51.240;9.964;2023-04-24T02:12:06;2.25;;;1.45;;
54909;SDS011;63189;51.240;9.964;2023-04-24T02:14:34;2.60;;;1.33;;
54909;SDS011;63189;51.240;9.964;2023-04-24T02:17:07;2.67;;;1.20;;
54909;SDS011;63189;51.240;9.964;2023-04-24T02:19:32;2.33;;;1.27;;
54909;SDS011;63189;51.240;9.964;2023-04-24T02:21:58;1.65;;;1.23;;
54909;SDS011;63189;51.240;9.964;2023-04-24T02:24:23;2.78;;;1.35;;
54909;SDS011;63189;51.240;9.964;2023-04-24T02:26:49;4.93;;;1.48;;
54909;SDS011;63189;51.240;9.964;2023-04-24T02:29:14;2.45;;;1.35;;
54909;SDS011;63189;51.240;9.964;2023-04-24T02:31:41;2.25;;;1.63;;
54909;SDS011;63189;51.240;9.964;2023-04-24T02:34:06;2.53;;;1.58;;
54909;SDS011;63189;51.240;9.964;2023-04-24T02:36:32;3.50;;;1.58;;
54909;SDS011;63189;51.240;9.964;2023-04-24T02:38:57;5.07;;;1.52;;
54909;SDS011;63189;51.240;9.964;2023-04-24T02:41:29;3.50;;;1.20;;
54909;SDS011;63189;51.240;9.964;2023-04-24T02:43:57;2.67;;;1.52;;
54909;SDS011;63189;51.240;9.964;2023-04-24T02:46:24;2.72;;;1.55;;
54909;SDS011;63189;51.240;9.964;2023-04-24T02:48:53;2.30;;;1.30;;
54909;SDS011;63189;51.240;9.964;2023-04-24T02:51:29;2.47;;;1.48;;
54909;SDS011;63189;51.240;9.964;2023-04-24T02:53:54;2.05;;;1.40;;
54909;SDS011;63189;51.240;9.964;2023-04-24T02:56:20;1.65;;;1.20;;
54909;SDS011;63189;51.240;9.964;2023-04-24T02:58:45;2.13;;;1.13;;
54909;SDS011;63189;51.240;9.964;2023-04-24T03:01:11;2.53;;;1.77;;
54909;SDS011;63189;51.240;9.964;2023-04-24T03:03:37;2.75;;;1.40;;
54909;SDS011;63189;51.240;9.964;2023-04-24T03:06:03;6.80;;;1.67;;
54909;SDS011;63189;51.240;9.964;2023-04-24T03:08:30;2.03;;;1.20;;
54909;SDS011;63189;51.240;9.964;2023-04-24T03:10:56;3.92;;;1.27;;
54909;SDS011;63189;51.240;9.964;2023-04-24T03:13:22;2.58;;;1.40;;
54909;SDS011;63189;51.240;9.964;2023-04-24T03:15:47;3.03;;;1.20;;
54909;SDS011;63189;51.240;9.964;2023-04-24T03:18:13;1.60;;;1.50;;
54909;SDS011;63189;51.240;9.964;2023-04-24T03:20:38;2.05;;;1.50;;
54909;SDS011;63189;51.240;9.964;2023-04-24T03:23:04;2.78;;;1.48;;
54909;SDS011;63189;51.240;9.964;2023-04-24T03:25:29;2.72;;;1.30;;
54909;SDS011;63189;51.240;9.964;2023-04-24T03:27:58;2.35;;;1.15;;
54909;SDS011;63189;51.240;9.964;2023-04-24T03:30:23;2.08;;;1.17;;
54909;SDS011;63189;51.240;9.964;2023-04-24T03:32:48;2.95;;;1.40;;
54909;SDS011;63189;51.240;9.964;2023-04-24T03:35:17;1.85;;;1.05;;
54909;SDS011;63189;51.240;9.964;2023-04-24T03:37:42;2.17;;;1.20;;
54909;SDS011;63189;51.240;9.964;2023-04-24T03:40:16;2.65;;;1.30;;
54909;SDS011;63189;51.240;9.964;2023-04-24T03:42:49;1.25;;;1.00;;
54909;SDS011;63189;51.240;9.964;2023-04-24T03:45:17;3.28;;;1.20;;
54909;SDS011;63189;51.240;9.964;2023-04-24T03:50:32;4.40;;;1.50;;
54909;SDS011;63189;51.240;9.964;2023-04-24T03:53:00;1.52;;;1.05;;
54909;SDS011;63189;51.240;9.964;2023-04-24T03:55:27;2.40;;;1.23;;
54909;SDS011;63189;51.240;9.964;2023-04-24T03:57:52;1.77;;;1.10;;
54909;SDS011;63189;51.240;9.964;2023-04-24T04:00:18;2.40;;;1.50;;
54909;SDS011;63189;51.240;9.964;2023-04-24T04:02:43;3.30;;;1.30;;
54909;SDS011;63189;51.240;9.964;2023-04-24T04:05:09;2.08;;;1.02;;
54909;SDS011;63189;51.240;9.964;2023-04-24T04:07:34;1.42;;;1.13;;
54909;SDS011;63189;51.240;9.964;2023-04-24T04:10:00;1.85;;;1.15;;
54909;SDS011;63189;51.240;9.964;2023-04-24T04:12:27;2.20;;;1.52;;
54909;SDS011;63189;51.240;9.964;2023-04-24T04:14:52;2.10;;;1.30;;
54909;SDS011;63189;51.240;9.964;2023-04-24T04:17:23;1.73;;;1.33;;
54909;SDS011;63189;51.240;9.964;2023-04-24T04:19:55;4.15;;;1.85;;
54909;SDS011;63189;51.240;9.964;2023-04-24T04:22:21;2.50;;;1.33;;
54909;SDS011;63189;51.240;9.964;2023-04-24T04:24:49;2.13;;;1.23;;
54909;SDS011;63189;51.240;9.964;2023-04-24T04:27:15;2.92;;;1.30;;
54909;SDS011;63189;51.240;9.964;2023-04-24T04:29:44;1.48;;;1.05;;
54909;SDS011;63189;51.240;9.964;2023-04-24T04:32:12;4.65;;;1.88;;
54909;SDS011;63189;51.240;9.964;2023-04-24T04:34:41;7.03;;;3.80;;
54909;SDS011;63189;51.240;9.964;2023-04-24T04:37:28;1.90;;;1.23;;
54909;SDS011;63189;51.240;9.964;2023-04-24T04:40:06;1.40;;;1.10;;
54909;SDS011;63189;51.240;9.964;2023-04-24T04:42:39;3.45;;;1.30;;
54909;SDS011;63189;51.240;9.964;2023-04-24T04:45:07;2.92;;;1.50;;
54909;SDS011;63189;51.240;9.964;2023-04-24T04:47:42;3.90;;;1.20;;
54909;SDS011;63189;51.240;9.964;2023-04-24T04:50:08;2.00;;;1.10;;
54909;SDS011;63189;51.240;9.964;2023-04-24T04:52:34;2.65;;;1.35;;
54909;SDS011;63189;51.240;9.964;2023-04-24T04:55:00;9.02;;;3.25;;
54909;SDS011;63189;51.240;9.964;2023-04-24T04:57:25;17.63;;;11.23;;
54909;SDS011;63189;51.240;9.964;2023-04-24T04:59:53;17.70;;;10.02;;
54909;SDS011;63189;51.240;9.964;2023-04-24T05:02:23;2.05;;;1.50;;
54909;SDS011;63189;51.240;9.964;2023-04-24T05:04:51;4.07;;;1.75;;
54909;SDS011;63189;51.240;9.964;2023-04-24T05:07:28;2.92;;;1.38;;
54909;SDS011;63189;51.240;9.964;2023-04-24T05:09:56;1.60;;;1.02;;
54909;SDS011;63189;51.240;9.964;2023-04-24T05:12:29;1.83;;;1.20;;
54909;SDS011;63189;51.240;9.964;2023-04-24T05:15:00;1.92;;;1.10;;
54909;SDS011;63189;51.240;9.964;2023-04-24T05:17:26;2.47;;;1.40;;
54909;SDS011;63189;51.240;9.964;2023-04-24T05:19:53;2.53;;;1.55;;
54909;SDS011;63189;51.240;9.964;2023-04-24T05:22:19;2.58;;;1.23;;
54909;SDS011;63189;51.240;9.964;2023-04-24T05:24:47;1.88;;;1.00;;
54909;SDS011;63189;51.240;9.964;2023-04-24T05:27:19;1.55;;;1.08;;
54909;SDS011;63189;51.240;9.964;2023-04-24T05:29:45;1.90;;;0.90;;
54909;SDS011;63189;51.240;9.964;2023-04-24T05:32:10;2.35;;;1.00;;
54909;SDS011;63189;51.240;9.964;2023-04-24T05:34:39;2.03;;;1.25;;
54909;SDS011;63189;51.240;9.964;2023-04-24T05:37:04;1.58;;;1.13;;
54909;SDS011;63189;51.240;9.964;2023-04-24T05:39:35;3.92;;;1.00;;
54909;SDS011;63189;51.240;9.964;2023-04-24T05:42:01;2.55;;;1.00;;
54909;SDS011;63189;51.240;9.964;2023-04-24T05:44:35;1.33;;;0.90;;
54909;SDS011;63189;51.240;9.964;2023-04-24T05:47:01;1.17;;;0.80;;
54909;SDS011;63189;51.240;9.964;2023-04-24T05:49:29;1.45;;;1.00;;
54909;SDS011;63189;51.240;9.964;2023-04-24T05:51:55;2.95;;;0.82;;
54909;SDS011;63189;51.240;9.964;2023-04-24T05:54:23;1.42;;;0.93;;
54909;SDS011;63189;51.240;9.964;2023-04-24T05:56:49;1.95;;;0.88;;
54909;SDS011;63189;51.240;9.964;2023-04-24T05:59:15;1.00;;;0.90;;
54909;SDS011;63189;51.240;9.964;2023-04-24T06:01:41;1.10;;;1.00;;
54909;SDS011;63189;51.240;9.964;2023-04-24T06:04:09;1.30;;;0.98;;
54909;SDS011;63189;51.240;9.964;2023-04-24T06:06:35;1.42;;;0.70;;
54909;SDS011;63189;51.240;9.964;2023-04-24T06:09:03;1.20;;;0.90;;
54909;SDS011;63189;51.240;9.964;2023-04-24T06:11:29;1.52;;;0.90;;
54909;SDS011;63189;51.240;9.964;2023-04-24T06:13:55;2.13;;;1.10;;
54909;SDS011;63189;51.240;9.964;2023-04-24T06:16:20;2.00;;;1.00;;
54909;SDS011;63189;51.240;9.964;2023-04-24T06:18:46;2.85;;;0.95;;
54909;SDS011;63189;51.240;9.964;2023-04-24T06:21:12;3.30;;;1.17;;
54909;SDS011;63189;51.240;9.964;2023-04-24T06:23:38;2.55;;;1.20;;
54909;SDS011;63189;51.240;9.964;2023-04-24T06:26:03;1.92;;;1.20;;
54909;SDS011;63189;51.240;9.964;2023-04-24T06:28:30;1.77;;;1.10;;
54909;SDS011;63189;51.240;9.964;2023-04-24T06:30:56;2.35;;;1.17;;
54909;SDS011;63189;51.240;9.964;2023-04-24T06:33:24;7.03;;;3.88;;
54909;SDS011;63189;51.240;9.964;2023-04-24T06:35:52;2.53;;;1.42;;
54909;SDS011;63189;51.240;9.964;2023-04-24T06:38:43;3.30;;;1.50;;
54909;SDS011;63189;51.240;9.964;2023-04-24T06:41:11;7.03;;;1.55;;
54909;SDS011;63189;51.240;9.964;2023-04-24T06:43:37;1.95;;;1.40;;
54909;SDS011;63189;51.240;9.964;2023-04-24T06:46:06;2.88;;;1.85;;
54909;SDS011;63189;51.240;9.964;2023-04-24T06:48:32;3.05;;;1.75;;
54909;SDS011;63189;51.240;9.964;2023-04-24T06:51:00;2.40;;;1.92;;
54909;SDS011;63189;51.240;9.964;2023-04-24T06:53:26;3.42;;;1.60;;
54909;SDS011;63189;51.240;9.964;2023-04-24T06:55:52;2.70;;;1.60;;
54909;SDS011;63189;51.240;9.964;2023-04-24T06:58:18;2.60;;;1.75;;
54909;SDS011;63189;51.240;9.964;2023-04-24T07:00:55;4.18;;;1.98;;
54909;SDS011;63189;51.240;9.964;2023-04-24T07:03:41;3.08;;;2.15;;
54909;SDS011;63189;51.240;9.964;2023-04-24T07:06:32;3.83;;;2.10;;
54909;SDS011;63189;51.240;9.964;2023-04-24T07:09:05;2.67;;;1.90;;
54909;SDS011;63189;51.240;9.964;2023-04-24T07:11:30;3.92;;;2.30;;
54909;SDS011;63189;51.240;9.964;2023-04-24T07:13:56;4.60;;;2.10;;
54909;SDS011;63189;51.240;9.964;2023-04-24T07:16:35;6.10;;;2.13;;
54909;SDS011;63189;51.240;9.964;2023-04-24T07:19:03;2.92;;;1.85;;
54909;SDS011;63189;51.240;9.964;2023-04-24T07:21:29;2.85;;;1.90;;
54909;SDS011;63189;51.240;9.964;2023-04-24T07:24:03;4.22;;;1.70;;
54909;SDS011;63189;51.240;9.964;2023-04-24T07:26:42;2.53;;;1.90;;
54909;SDS011;63189;51.240;9.964;2023-04-24T07:29:08;2.33;;;1.83;;
54909;SDS011;63189;51.240;9.964;2023-04-24T07:31:36;3.15;;;2.22;;
54909;SDS011;63189;51.240;9.964;2023-04-24T07:34:06;5.13;;;2.30;;
54909;SDS011;63189;51.240;9.964;2023-04-24T07:36:32;5.03;;;2.22;;
54909;SDS011;63189;51.240;9.964;2023-04-24T07:38:58;4.88;;;2.35;;
54909;SDS011;63189;51.240;9.964;2023-04-24T07:41:23;3.10;;;2.50;;
54909;SDS011;63189;51.240;9.964;2023-04-24T07:43:49;3.63;;;2.17;;
54909;SDS011;63189;51.240;9.964;2023-04-24T07:46:15;3.70;;;2.05;;
54909;SDS011;63189;51.240;9.964;2023-04-24T07:48:43;3.35;;;2.22;;
54909;SDS011;63189;51.240;9.964;2023-04-24T07:51:11;2.50;;;1.98;;
54909;SDS011;63189;51.240;9.964;2023-04-24T07:53:38;3.92;;;2.00;;
54909;SDS011;63189;51.240;9.964;2023-04-24T07:56:06;3.53;;;2.03;;
54909;SDS011;63189;51.240;9.964;2023-04-24T07:58:31;3.08;;;2.20;;
54909;SDS011;63189;51.240;9.964;2023-04-24T08:00:57;2.85;;;2.00;;
54909;SDS011;63189;51.240;9.964;2023-04-24T08:03:22;2.58;;;2.13;;
54909;SDS011;63189;51.240;9.964;2023-04-24T08:05:50;3.00;;;1.98;;
54909;SDS011;63189;51.240;9.964;2023-04-24T08:08:16;4.10;;;2.58;;
54909;SDS011;63189;51.240;9.964;2023-04-24T08:10:42;4.25;;;2.50;;
54909;SDS011;63189;51.240;9.964;2023-04-24T08:13:08;3.78;;;2.35;;
54909;SDS011;63189;51.240;9.964;2023-04-24T08:15:36;3.55;;;2.65;;
54909;SDS011;63189;51.240;9.964;2023-04-24T08:18:05;2.92;;;2.25;;
54909;SDS011;63189;51.240;9.964;2023-04-24T08:20:30;3.67;;;2.60;;
54909;SDS011;63189;51.240;9.964;2023-04-24T08:22:59;4.80;;;2.85;;
54909;SDS011;63189;51.240;9.964;2023-04-24T08:25:30;2.50;;;2.10;;
54909;SDS011;63189;51.240;9.964;2023-04-24T08:27:55;2.83;;;2.30;;
54909;SDS011;63189;51.240;9.964;2023-04-24T08:30:21;3.47;;;2.30;;
54909;SDS011;63189;51.240;9.964;2023-04-24T08:32:52;3.05;;;2.28;;
54909;SDS011;63189;51.240;9.964;2023-04-24T08:35:20;5.25;;;2.47;;
54909;SDS011;63189;51.240;9.964;2023-04-24T08:37:45;3.53;;;2.20;;
54909;SDS011;63189;51.240;9.964;2023-04-24T08:40:14;4.97;;;2.45;;
54909;SDS011;63189;51.240;9.964;2023-04-24T08:42:44;3.75;;;2.60;;
54909;SDS011;63189;51.240;9.964;2023-04-24T08:45:13;4.30;;;2.30;;
54909;SDS011;63189;51.240;9.964;2023-04-24T08:47:39;5.57;;;2.63;;
54909;SDS011;63189;51.240;9.964;2023-04-24T08:50:15;3.17;;;2.10;;
54909;SDS011;63189;51.240;9.964;2023-04-24T08:52:42;2.78;;;2.10;;
54909;SDS011;63189;51.240;9.964;2023-04-24T08:55:07;5.53;;;2.60;;
54909;SDS011;63189;51.240;9.964;2023-04-24T08:57:33;2.95;;;2.33;;
54909;SDS011;63189;51.240;9.964;2023-04-24T09:00:01;3.72;;;2.45;;
54909;SDS011;63189;51.240;9.964;2023-04-24T09:02:30;5.15;;;2.50;;
54909;SDS011;63189;51.240;9.964;2023-04-24T09:04:57;3.90;;;2.70;;
54909;SDS011;63189;51.240;9.964;2023-04-24T09:07:24;3.67;;;2.58;;
54909;SDS011;63189;51.240;9.964;2023-04-24T09:09:52;6.45;;;2.90;;
54909;SDS011;63189;51.240;9.964;2023-04-24T09:12:18;3.42;;;2.40;;
54909;SDS011;63189;51.240;9.964;2023-04-24T09:14:52;3.22;;;2.22;;
54909;SDS011;63189;51.240;9.964;2023-04-24T09:17:40;3.22;;;2.28;;
54909;SDS011;63189;51.240;9.964;2023-04-24T09:20:13;4.85;;;2.58;;
54909;SDS011;63189;51.240;9.964;2023-04-24T09:22:57;4.38;;;2.60;;
54909;SDS011;63189;51.240;9.964;2023-04-24T09:25:54;5.75;;;2.42;;
54909;SDS011;63189;51.240;9.964;2023-04-24T09:28:29;5.07;;;2.45;;
54909;SDS011;63189;51.240;9.964;2023-04-24T09:31:06;3.15;;;2.30;;
54909;SDS011;63189;51.240;9.964;2023-04-24T09:33:39;3.00;;;2.28;;
54909;SDS011;63189;51.240;9.964;2023-04-24T09:36:16;3.45;;;2.45;;
54909;SDS011;63189;51.240;9.964;2023-04-24T09:39:03;5.47;;;2.25;;
54909;SDS011;63189;51.240;9.964;2023-04-24T09:41:45;3.45;;;2.30;;
54909;SDS011;63189;51.240;9.964;2023-04-24T09:44:37;2.53;;;2.00;;
54909;SDS011;63189;51.240;9.964;2023-04-24T09:49:53;2.80;;;2.15;;
54909;SDS011;63189;51.240;9.964;2023-04-24T09:53:12;3.65;;;2.88;;
54909;SDS011;63189;51.240;9.964;2023-04-24T09:55:45;6.90;;;2.97;;
54909;SDS011;63189;51.240;9.964;2023-04-24T09:58:17;3.17;;;2.20;;
54909;SDS011;63189;51.240;9.964;2023-04-24T10:01:09;7.97;;;2.50;;
54909;SDS011;63189;51.240;9.964;2023-04-24T10:03:37;4.85;;;2.70;;
54909;SDS011;63189;51.240;9.964;2023-04-24T10:08:40;3.60;;;2.30;;
54909;SDS011;63189;51.240;9.964;2023-04-24T10:11:06;3.70;;;2.00;;
54909;SDS011;63189;51.240;9.964;2023-04-24T10:13:32;6.65;;;3.15;;
54909;SDS011;63189;51.240;9.964;2023-04-24T10:15:59;5.13;;;2.65;;
54909;SDS011;63189;51.240;9.964;2023-04-24T10:18:25;4.57;;;2.25;;
54909;SDS011;63189;51.240;9.964;2023-04-24T10:20:51;5.07;;;2.10;;
54909;SDS011;63189;51.240;9.964;2023-04-24T10:23:19;3.97;;;1.95;;
54909;SDS011;63189;51.240;9.964;2023-04-24T10:25:45;2.75;;;2.08;;
54909;SDS011;63189;51.240;9.964;2023-04-24T10:28:10;3.50;;;2.05;;
54909;SDS011;63189;51.240;9.964;2023-04-24T10:30:36;3.38;;;2.22;;
54909;SDS011;63189;51.240;9.964;2023-04-24T10:33:06;3.25;;;2.30;;
54909;SDS011;63189;51.240;9.964;2023-04-24T10:35:38;2.60;;;2.10;;
54909;SDS011;63189;51.240;9.964;2023-04-24T10:40:34;4.38;;;2.40;;
54909;SDS011;63189;51.240;9.964;2023-04-24T10:43:07;2.78;;;1.90;;
54909;SDS011;63189;51.240;9.964;2023-04-24T10:45:35;4.30;;;1.95;;
54909;SDS011;63189;51.240;9.964;2023-04-24T10:48:05;5.28;;;2.00;;
54909;SDS011;63189;51.240;9.964;2023-04-24T10:50:50;3.08;;;2.15;;
54909;SDS011;63189;51.240;9.964;2023-04-24T10:53:17;3.10;;;2.10;;
54909;SDS011;63189;51.240;9.964;2023-04-24T10:55:49;4.25;;;2.10;;
54909;SDS011;63189;51.240;9.964;2023-04-24T10:58:39;3.90;;;2.75;;
54909;SDS011;63189;51.240;9.964;2023-04-24T11:01:24;3.40;;;1.90;;
54909;SDS011;63189;51.240;9.964;2023-04-24T11:03:54;2.83;;;1.65;;
54909;SDS011;63189;51.240;9.964;2023-04-24T11:06:28;2.58;;;2.10;;
54909;SDS011;63189;51.240;9.964;2023-04-24T11:09:04;3.97;;;2.10;;
54909;SDS011;63189;51.240;9.964;2023-04-24T11:11:35;2.03;;;1.70;;
54909;SDS011;63189;51.240;9.964;2023-04-24T11:17:26;3.47;;;2.20;;
54909;SDS011;63189;51.240;9.964;2023-04-24T11:19:18;2.53;;;1.88;;
54909;SDS011;63189;51.240;9.964;2023-04-24T11:24:27;2.85;;;2.30;;
54909;SDS011;63189;51.240;9.964;2023-04-24T11:26:56;3.60;;;2.13;;
54909;SDS011;63189;51.240;9.964;2023-04-24T11:29:23;4.03;;;2.15;;
54909;SDS011;63189;51.240;9.964;2023-04-24T11:34:48;2.63;;;2.00;;
54909;SDS011;63189;51.240;9.964;2023-04-24T11:37:15;3.50;;;1.90;;
54909;SDS011;63189;51.240;9.964;2023-04-24T11:39:40;2.15;;;1.60;;
54909;SDS011;63189;51.240;9.964;2023-04-24T11:42:06;4.00;;;1.70;;
54909;SDS011;63189;51.240;9.964;2023-04-24T11:44:33;2.13;;;1.40;;
54909;SDS011;63189;51.240;9.964;2023-04-24T11:46:59;2.67;;;1.58;;
54909;SDS011;63189;51.240;9.964;2023-04-24T11:49:24;3.42;;;1.42;;
54909;SDS011;63189;51.240;9.964;2023-04-24T11:51:50;2.00;;;1.60;;
54909;SDS011;63189;51.240;9.964;2023-04-24T11:54:20;1.90;;;1.20;;
54909;SDS011;63189;51.240;9.964;2023-04-24T11:56:46;3.08;;;0.98;;
54909;SDS011;63189;51.240;9.964;2023-04-24T11:59:12;3.67;;;1.10;;
54909;SDS011;63189;51.240;9.964;2023-04-24T12:01:44;0.90;;;0.80;;
54909;SDS011;63189;51.240;9.964;2023-04-24T12:04:10;1.20;;;0.85;;
54909;SDS011;63189;51.240;9.964;2023-04-24T12:06:36;1.02;;;0.93;;
54909;SDS011;63189;51.240;9.964;2023-04-24T12:09:01;0.60;;;0.60;;
54909;SDS011;63189;51.240;9.964;2023-04-24T12:11:27;1.13;;;0.90;;
54909;SDS011;63189;51.240;9.964;2023-04-24T12:13:52;3.25;;;1.00;;
54909;SDS011;63189;51.240;9.964;2023-04-24T12:16:18;1.13;;;0.70;;
54909;SDS011;63189;51.240;9.964;2023-04-24T12:18:44;0.73;;;0.50;;
54909;SDS011;63189;51.240;9.964;2023-04-24T12:21:20;1.60;;;0.52;;
54909;SDS011;63189;51.240;9.964;2023-04-24T12:23:46;0.30;;;0.30;;
54909;SDS011;63189;51.240;9.964;2023-04-24T12:26:16;0.55;;;0.50;;
54909;SDS011;63189;51.240;9.964;2023-04-24T12:28:45;1.88;;;1.17;;
54909;SDS011;63189;51.240;9.964;2023-04-24T12:31:13;1.20;;;0.60;;
54909;SDS011;63189;51.240;9.964;2023-04-24T12:33:38;1.25;;;0.40;;
54909;SDS011;63189;51.240;9.964;2023-04-24T12:36:03;2.90;;;0.28;;
54909;SDS011;63189;51.240;9.964;2023-04-24T12:38:30;0.35;;;0.25;;
54909;SDS011;63189;51.240;9.964;2023-04-24T12:41:05;0.20;;;0.20;;
54909;SDS011;63189;51.240;9.964;2023-04-24T12:43:33;0.20;;;0.20;;
54909;SDS011;63189;51.240;9.964;2023-04-24T12:45:59;0.50;;;0.20;;
54909;SDS011;63189;51.240;9.964;2023-04-24T12:48:25;1.52;;;0.40;;
54909;SDS011;63189;51.240;9.964;2023-04-24T12:50:51;0.65;;;0.40;;
54909;SDS011;63189;51.240;9.964;2023-04-24T12:53:16;0.63;;;0.40;;
54909;SDS011;63189;51.240;9.964;2023-04-24T12:55:42;0.20;;;0.20;;
54909;SDS011;63189;51.240;9.964;2023-04-24T12:58:07;0.98;;;0.20;;
54909;SDS011;63189;51.240;9.964;2023-04-24T13:00:33;0.30;;;0.30;;
54909;SDS011;63189;51.240;9.964;2023-04-24T13:02:58;0.40;;;0.32;;
54909;SDS011;63189;51.240;9.964;2023-04-24T13:05:23;0.45;;;0.30;;
54909;SDS011;63189;51.240;9.964;2023-04-24T13:07:49;0.80;;;0.20;;
54909;SDS011;63189;51.240;9.964;2023-04-24T13:10:15;0.32;;;0.30;;
54909;SDS011;63189;51.240;9.964;2023-04-24T13:12:40;0.50;;;0.40;;
54909;SDS011;63189;51.240;9.964;2023-04-24T13:15:06;0.60;;;0.40;;
54909;SDS011;63189;51.240;9.964;2023-04-24T13:17:32;0.40;;;0.38;;
54909;SDS011;63189;51.240;9.964;2023-04-24T13:19:58;0.40;;;0.40;;
54909;SDS011;63189;51.240;9.964;2023-04-24T13:22:23;0.30;;;0.28;;
54909;SDS011;63189;51.240;9.964;2023-04-24T13:24:49;0.47;;;0.40;;
54909;SDS011;63189;51.240;9.964;2023-04-24T13:27:14;0.73;;;0.40;;
54909;SDS011;63189;51.240;9.964;2023-04-24T13:29:40;0.38;;;0.38;;
54909;SDS011;63189;51.240;9.964;2023-04-24T13:32:06;0.35;;;0.35;;
54909;SDS011;63189;51.240;9.964;2023-04-24T13:34:32;0.95;;;0.32;;
54909;SDS011;63189;51.240;9.964;2023-04-24T13:37:00;0.47;;;0.40;;
54909;SDS011;63189;51.240;9.964;2023-04-24T13:39:26;0.63;;;0.50;;
54909;SDS011;63189;51.240;9.964;2023-04-24T13:41:51;0.73;;;0.60;;
54909;SDS011;63189;51.240;9.964;2023-04-24T13:44:18;1.38;;;0.88;;
54909;SDS011;63189;51.240;9.964;2023-04-24T13:46:45;0.77;;;0.50;;
54909;SDS011;63189;51.240;9.964;2023-04-24T13:49:12;0.90;;;0.55;;
54909;SDS011;63189;51.240;9.964;2023-04-24T13:51:40;1.00;;;0.80;;
54909;SDS011;63189;51.240;9.964;2023-04-24T13:54:06;1.17;;;0.80;;
54909;SDS011;63189;51.240;9.964;2023-04-24T13:56:33;0.70;;;0.60;;
54909;SDS011;63189;51.240;9.964;2023-04-24T13:58:58;0.57;;;0.57;;
54909;SDS011;63189;51.240;9.964;2023-04-24T14:01:24;0.77;;;0.50;;
54909;SDS011;63189;51.240;9.964;2023-04-24T14:03:50;0.90;;;0.50;;
54909;SDS011;63189;51.240;9.964;2023-04-24T14:06:19;1.02;;;0.55;;
54909;SDS011;63189;51.240;9.964;2023-04-24T14:08:45;1.30;;;1.00;;
54909;SDS011;63189;51.240;9.964;2023-04-24T14:11:11;2.50;;;1.30;;
54909;SDS011;63189;51.240;9.964;2023-04-24T14:13:37;1.05;;;0.85;;
54909;SDS011;63189;51.240;9.964;2023-04-24T14:16:03;0.85;;;0.60;;
54909;SDS011;63189;51.240;9.964;2023-04-24T14:18:29;1.13;;;0.70;;
54909;SDS011;63189;51.240;9.964;2023-04-24T14:20:55;0.70;;;0.50;;
54909;SDS011;63189;51.240;9.964;2023-04-24T14:23:20;0.52;;;0.50;;
54909;SDS011;63189;51.240;9.964;2023-04-24T14:25:45;0.70;;;0.55;;
54909;SDS011;63189;51.240;9.964;2023-04-24T14:28:13;0.55;;;0.50;;
54909;SDS011;63189;51.240;9.964;2023-04-24T14:30:38;0.50;;;0.50;;
54909;SDS011;63189;51.240;9.964;2023-04-24T14:33:05;0.88;;;0.70;;
54909;SDS011;63189;51.240;9.964;2023-04-24T14:35:32;2.15;;;0.85;;
54909;SDS011;63189;51.240;9.964;2023-04-24T14:37:59;1.02;;;0.73;;
54909;SDS011;63189;51.240;9.964;2023-04-24T14:40:24;0.60;;;0.50;;
54909;SDS011;63189;51.240;9.964;2023-04-24T14:42:51;0.73;;;0.50;;
54909;SDS011;63189;51.240;9.964;2023-04-24T14:45:16;0.63;;;0.60;;
54909;SDS011;63189;51.240;9.964;2023-04-24T14:47:42;0.70;;;0.50;;
54909;SDS011;63189;51.240;9.964;2023-04-24T14:50:08;3.22;;;1.08;;
54909;SDS011;63189;51.240;9.964;2023-04-24T14:52:34;1.70;;;1.02;;
54909;SDS011;63189;51.240;9.964;2023-04-24T14:55:00;1.70;;;0.75;;
54909;SDS011;63189;51.240;9.964;2023-04-24T14:57:25;2.65;;;1.13;;
54909;SDS011;63189;51.240;9.964;2023-04-24T14:59:51;1.23;;;0.82;;
54909;SDS011;63189;51.240;9.964;2023-04-24T15:02:16;2.53;;;0.85;;
54909;SDS011;63189;51.240;9.964;2023-04-24T15:04:42;1.45;;;0.80;;
54909;SDS011;63189;51.240;9.964;2023-04-24T15:07:08;0.85;;;0.70;;
54909;SDS011;63189;51.240;9.964;2023-04-24T15:09:33;3.30;;;0.82;;
54909;SDS011;63189;51.240;9.964;2023-04-24T15:11:59;1.17;;;0.90;;
54909;SDS011;63189;51.240;9.964;2023-04-24T15:14:24;1.25;;;0.90;;
54909;SDS011;63189;51.240;9.964;2023-04-24T15:16:50;2.83;;;1.10;;
54909;SDS011;63189;51.240;9.964;2023-04-24T15:19:22;1.83;;;1.08;;
54909;SDS011;63189;51.240;9.964;2023-04-24T15:21:47;1.45;;;1.10;;
54909;SDS011;63189;51.240;9.964;2023-04-24T15:24:15;3.63;;;1.50;;
54909;SDS011;63189;51.240;9.964;2023-04-24T15:26:40;2.55;;;1.42;;
54909;SDS011;63189;51.240;9.964;2023-04-24T15:29:05;4.35;;;1.65;;
54909;SDS011;63189;51.240;9.964;2023-04-24T15:31:31;3.85;;;2.15;;
54909;SDS011;63189;51.240;9.964;2023-04-24T15:33:56;4.13;;;1.80;;
54909;SDS011;63189;51.240;9.964;2023-04-24T15:36:21;2.80;;;1.67;;
54909;SDS011;63189;51.240;9.964;2023-04-24T15:38:47;4.13;;;1.67;;
54909;SDS011;63189;51.240;9.964;2023-04-24T15:41:12;3.85;;;2.00;;
54909;SDS011;63189;51.240;9.964;2023-04-24T15:43:38;4.68;;;1.92;;
54909;SDS011;63189;51.240;9.964;2023-04-24T15:46:05;4.55;;;1.45;;
54909;SDS011;63189;51.240;9.964;2023-04-24T15:48:31;4.63;;;1.85;;
54909;SDS011;63189;51.240;9.964;2023-04-24T15:50:56;5.40;;;2.55;;
54909;SDS011;63189;51.240;9.964;2023-04-24T15:53:22;5.50;;;2.20;;
54909;SDS011;63189;51.240;9.964;2023-04-24T15:55:49;5.10;;;2.45;;
54909;SDS011;63189;51.240;9.964;2023-04-24T15:58:18;4.88;;;2.63;;
54909;SDS011;63189;51.240;9.964;2023-04-24T16:00:45;5.53;;;2.70;;
54909;SDS011;63189;51.240;9.964;2023-04-24T16:03:11;3.78;;;2.17;;
54909;SDS011;63189;51.240;9.964;2023-04-24T16:05:37;5.32;;;2.65;;
54909;SDS011;63189;51.240;9.964;2023-04-24T16:08:04;5.75;;;2.60;;
54909;SDS011;63189;51.240;9.964;2023-04-24T16:10:30;3.75;;;2.10;;
54909;SDS011;63189;51.240;9.964;2023-04-24T16:12:56;4.72;;;2.85;;
54909;SDS011;63189;51.240;9.964;2023-04-24T16:15:21;4.03;;;2.45;;
54909;SDS011;63189;51.240;9.964;2023-04-24T16:17:47;5.15;;;2.78;;
54909;SDS011;63189;51.240;9.964;2023-04-24T16:20:14;5.82;;;2.45;;
54909;SDS011;63189;51.240;9.964;2023-04-24T16:22:40;3.83;;;1.95;;
54909;SDS011;63189;51.240;9.964;2023-04-24T16:25:06;4.38;;;2.75;;
54909;SDS011;63189;51.240;9.964;2023-04-24T16:27:33;4.75;;;2.85;;
54909;SDS011;63189;51.240;9.964;2023-04-24T16:29:58;4.40;;;2.35;;
54909;SDS011;63189;51.240;9.964;2023-04-24T16:32:24;6.47;;;3.08;;
54909;SDS011;63189;51.240;9.964;2023-04-24T16:34:50;10.18;;;3.40;;
54909;SDS011;63189;51.240;9.964;2023-04-24T16:37:15;4.40;;;2.53;;
54909;SDS011;63189;51.240;9.964;2023-04-24T16:39:41;5.57;;;3.05;;
54909;SDS011;63189;51.240;9.964;2023-04-24T16:42:12;9.75;;;2.92;;
54909;SDS011;63189;51.240;9.964;2023-04-24T16:44:39;6.97;;;2.50;;